sensor_id;sensor_type;location;lat;lon;timestamp;P1;durP1;ratioP1;P2;durP2;ratioP2
17253;SDS011;32542;52.832;13.816;2024-01-15T00:00:30;4.18;;;1.00;;
17253;SDS011;32542;52.832;13.816;2024-01-15T00:03:33;1.75;;;0.93;;
17253;SDS011;32542;52.832;13.816;2024-01-15T00:06:36;3.47;;;1.27;;
17253;SDS011;32542;52.832;13.816;2024-01-15T00:09:41;3.42;;;1.17;;
17253;SDS011;32542;52.832;13.816;2024-01-15T00:12:44;3.20;;;0.90;;
17253;SDS011;32542;52.832;13.816;2024-01-15T00:15:47;3.90;;;1.10;;
17253;SDS011;32542;52.832;13.816;2024-01-15T00:18:50;2.00;;;1.10;;
17253;SDS011;32542;52.832;13.816;2024-01-15T00:21:53;3.95;;;1.00;;
17253;SDS011;32542;52.832;13.816;2024-01-15T00:24:57;1.35;;;0.70;;
17253;SDS011;32542;52.832;13.816;2024-01-15T00:28:00;4.32;;;1.00;;
17253;SDS011;32542;52.832;13.816;2024-01-15T00:31:03;4.47;;;1.30;;
17253;SDS011;32542;52.832;13.816;2024-01-15T00:34:06;3.22;;;0.80;;
17253;SDS011;32542;52.832;13.816;2024-01-15T00:37:09;1.80;;;0.85;;
17253;SDS011;32542;52.832;13.816;2024-01-15T00:40:13;4.10;;;0.90;;
17253;SDS011;32542;52.832;13.816;2024-01-15T00:43:16;1.40;;;1.00;;
17253;SDS011;32542;52.832;13.816;2024-01-15T00:46:20;6.82;;;1.00;;
17253;SDS011;32542;52.832;13.816;2024-01-15T00:49:23;1.40;;;0.85;;
17253;SDS011;32542;52.832;13.816;2024-01-15T00:52:26;2.22;;;1.33;;
17253;SDS011;32542;52.832;13.816;2024-01-15T00:55:30;3.88;;;1.10;;
17253;SDS011;32542;52.832;13.816;2024-01-15T00:58:33;2.35;;;0.80;;
17253;SDS011;32542;52.832;13.816;2024-01-15T01:01:36;2.00;;;1.10;;
17253;SDS011;32542;52.832;13.816;2024-01-15T01:04:40;1.05;;;0.75;;
17253;SDS011;32542;52.832;13.816;2024-01-15T01:07:42;2.83;;;0.98;;
17253;SDS011;32542;52.832;13.816;2024-01-15T01:10:47;1.30;;;0.93;;
17253;SDS011;32542;52.832;13.816;2024-01-15T01:13:49;3.80;;;0.85;;
17253;SDS011;32542;52.832;13.816;2024-01-15T01:16:52;1.45;;;0.80;;
17253;SDS011;32542;52.832;13.816;2024-01-15T01:19:55;0.98;;;0.73;;
17253;SDS011;32542;52.832;13.816;2024-01-15T01:22:58;3.67;;;0.90;;
17253;SDS011;32542;52.832;13.816;2024-01-15T01:26:02;1.45;;;0.85;;
17253;SDS011;32542;52.832;13.816;2024-01-15T01:29:05;1.52;;;0.95;;
17253;SDS011;32542;52.832;13.816;2024-01-15T01:32:08;4.07;;;1.15;;
17253;SDS011;32542;52.832;13.816;2024-01-15T01:35:12;1.88;;;1.00;;
17253;SDS011;32542;52.832;13.816;2024-01-15T01:38:15;1.73;;;1.10;;
17253;SDS011;32542;52.832;13.816;2024-01-15T01:41:19;1.02;;;0.90;;
17253;SDS011;32542;52.832;13.816;2024-01-15T01:44:22;1.15;;;0.80;;
17253;SDS011;32542;52.832;13.816;2024-01-15T01:47:25;4.78;;;0.98;;
17253;SDS011;32542;52.832;13.816;2024-01-15T01:50:28;0.95;;;0.82;;
17253;SDS011;32542;52.832;13.816;2024-01-15T01:53:33;1.23;;;0.90;;
17253;SDS011;32542;52.832;13.816;2024-01-15T01:56:40;1.85;;;1.00;;
17253;SDS011;32542;52.832;13.816;2024-01-15T01:59:43;1.67;;;0.80;;
17253;SDS011;32542;52.832;13.816;2024-01-15T02:02:48;1.10;;;0.70;;
17253;SDS011;32542;52.832;13.816;2024-01-15T02:05:51;1.23;;;0.77;;
17253;SDS011;32542;52.832;13.816;2024-01-15T02:08:55;1.13;;;0.90;;
17253;SDS011;32542;52.832;13.816;2024-01-15T02:11:59;1.10;;;0.90;;
17253;SDS011;32542;52.832;13.816;2024-01-15T02:15:02;0.98;;;0.73;;
17253;SDS011;32542;52.832;13.816;2024-01-15T02:18:06;0.85;;;0.75;;
17253;SDS011;32542;52.832;13.816;2024-01-15T02:21:10;2.75;;;0.70;;
17253;SDS011;32542;52.832;13.816;2024-01-15T02:24:15;1.13;;;0.80;;
17253;SDS011;32542;52.832;13.816;2024-01-15T02:27:18;0.75;;;0.68;;
17253;SDS011;32542;52.832;13.816;2024-01-15T02:30:21;0.90;;;0.73;;
17253;SDS011;32542;52.832;13.816;2024-01-15T02:33:26;2.72;;;0.90;;
17253;SDS011;32542;52.832;13.816;2024-01-15T02:36:29;0.60;;;0.60;;
17253;SDS011;32542;52.832;13.816;2024-01-15T02:39:34;1.05;;;0.75;;
17253;SDS011;32542;52.832;13.816;2024-01-15T02:42:36;2.28;;;0.70;;
17253;SDS011;32542;52.832;13.816;2024-01-15T02:45:39;0.93;;;0.75;;
17253;SDS011;32542;52.832;13.816;2024-01-15T02:48:42;0.88;;;0.80;;
17253;SDS011;32542;52.832;13.816;2024-01-15T02:51:45;2.75;;;0.90;;
17253;SDS011;32542;52.832;13.816;2024-01-15T02:54:50;2.03;;;0.98;;
17253;SDS011;32542;52.832;13.816;2024-01-15T02:57:53;1.08;;;0.80;;
17253;SDS011;32542;52.832;13.816;2024-01-15T03:00:56;3.20;;;0.90;;
17253;SDS011;32542;52.832;13.816;2024-01-15T03:03:59;1.08;;;0.82;;
17253;SDS011;32542;52.832;13.816;2024-01-15T03:07:02;2.78;;;0.80;;
17253;SDS011;32542;52.832;13.816;2024-01-15T03:10:07;2.20;;;0.80;;
17253;SDS011;32542;52.832;13.816;2024-01-15T03:13:10;1.52;;;0.98;;
17253;SDS011;32542;52.832;13.816;2024-01-15T03:16:13;0.80;;;0.75;;
17253;SDS011;32542;52.832;13.816;2024-01-15T03:19:16;0.75;;;0.75;;
17253;SDS011;32542;52.832;13.816;2024-01-15T03:22:19;1.50;;;0.95;;
17253;SDS011;32542;52.832;13.816;2024-01-15T03:25:23;1.00;;;0.85;;
17253;SDS011;32542;52.832;13.816;2024-01-15T03:28:26;0.70;;;0.70;;
17253;SDS011;32542;52.832;13.816;2024-01-15T03:31:31;0.82;;;0.70;;
17253;SDS011;32542;52.832;13.816;2024-01-15T03:34:34;2.25;;;0.85;;
17253;SDS011;32542;52.832;13.816;2024-01-15T03:37:37;0.73;;;0.73;;
17253;SDS011;32542;52.832;13.816;2024-01-15T03:40:41;1.27;;;0.70;;
17253;SDS011;32542;52.832;13.816;2024-01-15T03:43:44;1.67;;;0.70;;
17253;SDS011;32542;52.832;13.816;2024-01-15T03:46:47;0.77;;;0.65;;
17253;SDS011;32542;52.832;13.816;2024-01-15T03:49:50;1.10;;;0.73;;
17253;SDS011;32542;52.832;13.816;2024-01-15T03:52:53;1.10;;;0.77;;
17253;SDS011;32542;52.832;13.816;2024-01-15T03:55:57;0.90;;;0.80;;
17253;SDS011;32542;52.832;13.816;2024-01-15T03:59:00;0.80;;;0.80;;
17253;SDS011;32542;52.832;13.816;2024-01-15T04:02:04;1.42;;;0.90;;
17253;SDS011;32542;52.832;13.816;2024-01-15T04:05:07;1.27;;;0.77;;
17253;SDS011;32542;52.832;13.816;2024-01-15T04:08:09;0.70;;;0.70;;
17253;SDS011;32542;52.832;13.816;2024-01-15T04:11:14;1.48;;;0.73;;
17253;SDS011;32542;52.832;13.816;2024-01-15T04:14:17;0.98;;;0.80;;
17253;SDS011;32542;52.832;13.816;2024-01-15T04:17:20;1.95;;;0.80;;
17253;SDS011;32542;52.832;13.816;2024-01-15T04:20:23;1.15;;;0.70;;
17253;SDS011;32542;52.832;13.816;2024-01-15T04:23:26;1.38;;;0.98;;
17253;SDS011;32542;52.832;13.816;2024-01-15T04:26:30;0.93;;;0.80;;
17253;SDS011;32542;52.832;13.816;2024-01-15T04:29:33;1.77;;;0.93;;
17253;SDS011;32542;52.832;13.816;2024-01-15T04:32:41;1.30;;;0.70;;
17253;SDS011;32542;52.832;13.816;2024-01-15T04:35:43;0.63;;;0.63;;
17253;SDS011;32542;52.832;13.816;2024-01-15T04:38:47;1.95;;;1.10;;
17253;SDS011;32542;52.832;13.816;2024-01-15T04:41:51;1.20;;;0.80;;
17253;SDS011;32542;52.832;13.816;2024-01-15T04:44:54;0.73;;;0.73;;
17253;SDS011;32542;52.832;13.816;2024-01-15T04:47:57;1.38;;;0.80;;
17253;SDS011;32542;52.832;13.816;2024-01-15T04:51:00;1.13;;;0.90;;
17253;SDS011;32542;52.832;13.816;2024-01-15T04:54:03;1.25;;;0.80;;
17253;SDS011;32542;52.832;13.816;2024-01-15T04:57:07;1.58;;;0.80;;
17253;SDS011;32542;52.832;13.816;2024-01-15T05:00:10;0.80;;;0.70;;
17253;SDS011;32542;52.832;13.816;2024-01-15T05:03:15;0.75;;;0.70;;
17253;SDS011;32542;52.832;13.816;2024-01-15T05:06:18;0.70;;;0.70;;
17253;SDS011;32542;52.832;13.816;2024-01-15T05:09:21;1.35;;;0.80;;
17253;SDS011;32542;52.832;13.816;2024-01-15T05:12:25;0.95;;;0.70;;
17253;SDS011;32542;52.832;13.816;2024-01-15T05:15:28;1.65;;;0.90;;
17253;SDS011;32542;52.832;13.816;2024-01-15T05:18:31;1.55;;;0.77;;
17253;SDS011;32542;52.832;13.816;2024-01-15T05:21:34;1.02;;;0.70;;
17253;SDS011;32542;52.832;13.816;2024-01-15T05:24:37;1.30;;;0.85;;
17253;SDS011;32542;52.832;13.816;2024-01-15T05:27:41;1.05;;;0.70;;
17253;SDS011;32542;52.832;13.816;2024-01-15T05:30:44;0.98;;;0.70;;
17253;SDS011;32542;52.832;13.816;2024-01-15T05:33:47;1.90;;;0.93;;
17253;SDS011;32542;52.832;13.816;2024-01-15T05:36:50;0.90;;;0.68;;
17253;SDS011;32542;52.832;13.816;2024-01-15T05:39:53;2.95;;;0.70;;
17253;SDS011;32542;52.832;13.816;2024-01-15T05:42:57;3.88;;;0.88;;
17253;SDS011;32542;52.832;13.816;2024-01-15T05:46:00;1.35;;;0.85;;
17253;SDS011;32542;52.832;13.816;2024-01-15T05:49:04;0.80;;;0.80;;
17253;SDS011;32542;52.832;13.816;2024-01-15T05:52:07;1.23;;;0.82;;
17253;SDS011;32542;52.832;13.816;2024-01-15T05:55:10;1.30;;;0.80;;
17253;SDS011;32542;52.832;13.816;2024-01-15T05:58:14;1.60;;;0.70;;
17253;SDS011;32542;52.832;13.816;2024-01-15T06:01:17;0.70;;;0.60;;
17253;SDS011;32542;52.832;13.816;2024-01-15T06:04:20;1.23;;;0.82;;
17253;SDS011;32542;52.832;13.816;2024-01-15T06:07:23;1.33;;;0.80;;
17253;SDS011;32542;52.832;13.816;2024-01-15T06:10:26;1.13;;;0.65;;
17253;SDS011;32542;52.832;13.816;2024-01-15T06:13:30;1.42;;;0.73;;
17253;SDS011;32542;52.832;13.816;2024-01-15T06:16:33;1.38;;;0.60;;
17253;SDS011;32542;52.832;13.816;2024-01-15T06:19:36;1.42;;;0.80;;
17253;SDS011;32542;52.832;13.816;2024-01-15T06:22:39;0.90;;;0.63;;
17253;SDS011;32542;52.832;13.816;2024-01-15T06:25:42;1.92;;;0.70;;
17253;SDS011;32542;52.832;13.816;2024-01-15T06:28:46;0.77;;;0.63;;
17253;SDS011;32542;52.832;13.816;2024-01-15T06:31:48;1.73;;;0.77;;
17253;SDS011;32542;52.832;13.816;2024-01-15T06:34:51;1.95;;;0.70;;
17253;SDS011;32542;52.832;13.816;2024-01-15T06:37:54;1.17;;;0.82;;
17253;SDS011;32542;52.832;13.816;2024-01-15T06:40:57;0.82;;;0.63;;
17253;SDS011;32542;52.832;13.816;2024-01-15T06:44:02;0.65;;;0.60;;
17253;SDS011;32542;52.832;13.816;2024-01-15T06:47:05;2.38;;;0.80;;
17253;SDS011;32542;52.832;13.816;2024-01-15T06:50:08;1.10;;;0.70;;
17253;SDS011;32542;52.832;13.816;2024-01-15T06:53:11;1.00;;;0.50;;
17253;SDS011;32542;52.832;13.816;2024-01-15T06:56:14;1.48;;;0.82;;
17253;SDS011;32542;52.832;13.816;2024-01-15T06:59:18;2.13;;;0.70;;
17253;SDS011;32542;52.832;13.816;2024-01-15T07:02:21;0.80;;;0.60;;
17253;SDS011;32542;52.832;13.816;2024-01-15T07:05:24;1.42;;;0.70;;
17253;SDS011;32542;52.832;13.816;2024-01-15T07:08:27;0.75;;;0.75;;
17253;SDS011;32542;52.832;13.816;2024-01-15T07:11:29;2.58;;;0.80;;
17253;SDS011;32542;52.832;13.816;2024-01-15T07:14:34;4.18;;;0.90;;
17253;SDS011;32542;52.832;13.816;2024-01-15T07:17:37;2.65;;;0.70;;
17253;SDS011;32542;52.832;13.816;2024-01-15T07:20:40;3.47;;;1.10;;
17253;SDS011;32542;52.832;13.816;2024-01-15T07:23:43;5.57;;;1.20;;
17253;SDS011;32542;52.832;13.816;2024-01-15T07:26:46;3.90;;;1.10;;
17253;SDS011;32542;52.832;13.816;2024-01-15T07:29:50;5.20;;;0.80;;
17253;SDS011;32542;52.832;13.816;2024-01-15T07:32:53;3.60;;;0.93;;
17253;SDS011;32542;52.832;13.816;2024-01-15T07:35:56;4.13;;;1.42;;
17253;SDS011;32542;52.832;13.816;2024-01-15T07:39:03;1.67;;;0.80;;
17253;SDS011;32542;52.832;13.816;2024-01-15T07:42:07;4.95;;;0.90;;
17253;SDS011;32542;52.832;13.816;2024-01-15T07:45:11;6.47;;;0.98;;
17253;SDS011;32542;52.832;13.816;2024-01-15T07:48:14;2.38;;;0.98;;
17253;SDS011;32542;52.832;13.816;2024-01-15T07:51:17;2.05;;;0.80;;
17253;SDS011;32542;52.832;13.816;2024-01-15T07:54:20;5.40;;;1.10;;
17253;SDS011;32542;52.832;13.816;2024-01-15T07:57:23;4.57;;;0.80;;
17253;SDS011;32542;52.832;13.816;2024-01-15T08:00:27;2.25;;;0.70;;
17253;SDS011;32542;52.832;13.816;2024-01-15T08:03:30;6.38;;;1.17;;
17253;SDS011;32542;52.832;13.816;2024-01-15T08:06:33;3.63;;;1.10;;
17253;SDS011;32542;52.832;13.816;2024-01-15T08:09:36;2.55;;;0.60;;
17253;SDS011;32542;52.832;13.816;2024-01-15T08:12:39;1.75;;;0.85;;
17253;SDS011;32542;52.832;13.816;2024-01-15T08:15:44;2.38;;;0.88;;
17253;SDS011;32542;52.832;13.816;2024-01-15T08:18:47;5.68;;;1.27;;
17253;SDS011;32542;52.832;13.816;2024-01-15T08:21:50;4.63;;;0.82;;
17253;SDS011;32542;52.832;13.816;2024-01-15T08:24:53;1.73;;;0.70;;
17253;SDS011;32542;52.832;13.816;2024-01-15T08:27:56;2.30;;;0.88;;
17253;SDS011;32542;52.832;13.816;2024-01-15T08:31:01;4.10;;;1.05;;
17253;SDS011;32542;52.832;13.816;2024-01-15T08:34:04;4.13;;;1.00;;
17253;SDS011;32542;52.832;13.816;2024-01-15T08:37:07;2.03;;;0.82;;
17253;SDS011;32542;52.832;13.816;2024-01-15T08:40:10;2.85;;;1.00;;
17253;SDS011;32542;52.832;13.816;2024-01-15T08:43:14;2.15;;;0.85;;
17253;SDS011;32542;52.832;13.816;2024-01-15T08:46:18;4.57;;;1.10;;
17253;SDS011;32542;52.832;13.816;2024-01-15T08:49:21;1.67;;;0.70;;
17253;SDS011;32542;52.832;13.816;2024-01-15T08:52:24;4.43;;;1.00;;
17253;SDS011;32542;52.832;13.816;2024-01-15T08:55:27;1.85;;;0.80;;
17253;SDS011;32542;52.832;13.816;2024-01-15T08:58:30;6.00;;;1.05;;
17253;SDS011;32542;52.832;13.816;2024-01-15T09:01:35;3.92;;;1.30;;
17253;SDS011;32542;52.832;13.816;2024-01-15T09:04:38;6.30;;;1.73;;
17253;SDS011;32542;52.832;13.816;2024-01-15T09:07:41;6.82;;;1.75;;
17253;SDS011;32542;52.832;13.816;2024-01-15T09:10:44;5.90;;;1.80;;
17253;SDS011;32542;52.832;13.816;2024-01-15T09:13:47;6.95;;;1.65;;
17253;SDS011;32542;52.832;13.816;2024-01-15T09:16:51;4.82;;;1.33;;
17253;SDS011;32542;52.832;13.816;2024-01-15T09:19:54;5.15;;;1.60;;
17253;SDS011;32542;52.832;13.816;2024-01-15T09:22:57;5.40;;;1.40;;
17253;SDS011;32542;52.832;13.816;2024-01-15T09:26:00;4.90;;;1.92;;
17253;SDS011;32542;52.832;13.816;2024-01-15T09:29:03;8.73;;;1.50;;
17253;SDS011;32542;52.832;13.816;2024-01-15T09:32:08;4.18;;;1.38;;
17253;SDS011;32542;52.832;13.816;2024-01-15T09:35:11;3.50;;;1.52;;
17253;SDS011;32542;52.832;13.816;2024-01-15T09:38:14;4.72;;;1.58;;
17253;SDS011;32542;52.832;13.816;2024-01-15T09:41:17;5.35;;;1.30;;
17253;SDS011;32542;52.832;13.816;2024-01-15T09:44:19;6.50;;;1.48;;
17253;SDS011;32542;52.832;13.816;2024-01-15T09:47:24;5.20;;;1.40;;
17253;SDS011;32542;52.832;13.816;2024-01-15T09:50:28;5.53;;;1.70;;
17253;SDS011;32542;52.832;13.816;2024-01-15T09:53:31;5.40;;;1.60;;
17253;SDS011;32542;52.832;13.816;2024-01-15T09:56:34;8.20;;;1.92;;
17253;SDS011;32542;52.832;13.816;2024-01-15T09:59:37;5.68;;;1.52;;
17253;SDS011;32542;52.832;13.816;2024-01-15T10:02:42;5.18;;;1.50;;
17253;SDS011;32542;52.832;13.816;2024-01-15T10:05:45;4.25;;;1.45;;
17253;SDS011;32542;52.832;13.816;2024-01-15T10:08:48;3.97;;;1.25;;
17253;SDS011;32542;52.832;13.816;2024-01-15T10:11:52;2.50;;;1.10;;
17253;SDS011;32542;52.832;13.816;2024-01-15T10:14:56;4.18;;;1.30;;
17253;SDS011;32542;52.832;13.816;2024-01-15T10:18:00;4.97;;;1.45;;
17253;SDS011;32542;52.832;13.816;2024-01-15T10:21:04;7.82;;;1.27;;
17253;SDS011;32542;52.832;13.816;2024-01-15T10:24:08;5.53;;;1.58;;
17253;SDS011;32542;52.832;13.816;2024-01-15T10:27:11;5.13;;;1.50;;
17253;SDS011;32542;52.832;13.816;2024-01-15T10:30:14;3.92;;;1.30;;
17253;SDS011;32542;52.832;13.816;2024-01-15T10:33:20;8.75;;;1.33;;
17253;SDS011;32542;52.832;13.816;2024-01-15T10:36:27;5.53;;;1.42;;
17253;SDS011;32542;52.832;13.816;2024-01-15T10:39:29;5.82;;;1.25;;
17253;SDS011;32542;52.832;13.816;2024-01-15T10:42:32;4.57;;;1.17;;
17253;SDS011;32542;52.832;13.816;2024-01-15T10:45:35;5.45;;;1.50;;
17253;SDS011;32542;52.832;13.816;2024-01-15T10:48:41;21.50;;;2.25;;
17253;SDS011;32542;52.832;13.816;2024-01-15T10:51:45;24.25;;;2.35;;
17253;SDS011;32542;52.832;13.816;2024-01-15T10:54:50;14.20;;;1.55;;
17253;SDS011;32542;52.832;13.816;2024-01-15T10:57:54;5.07;;;1.20;;
17253;SDS011;32542;52.832;13.816;2024-01-15T11:00:58;15.98;;;1.73;;
17253;SDS011;32542;52.832;13.816;2024-01-15T11:04:03;15.43;;;2.03;;
17253;SDS011;32542;52.832;13.816;2024-01-15T11:07:06;14.18;;;1.85;;
17253;SDS011;32542;52.832;13.816;2024-01-15T11:10:25;17.33;;;2.08;;
17253;SDS011;32542;52.832;13.816;2024-01-15T11:13:40;12.70;;;1.90;;
17253;SDS011;32542;52.832;13.816;2024-01-15T11:16:54;15.73;;;1.55;;
17253;SDS011;32542;52.832;13.816;2024-01-15T11:20:04;10.90;;;1.52;;
17253;SDS011;32542;52.832;13.816;2024-01-15T11:23:09;5.80;;;1.23;;
17253;SDS011;32542;52.832;13.816;2024-01-15T11:26:26;10.82;;;1.83;;
17253;SDS011;32542;52.832;13.816;2024-01-15T11:29:33;9.75;;;2.00;;
17253;SDS011;32542;52.832;13.816;2024-01-15T11:32:37;8.18;;;1.15;;
17253;SDS011;32542;52.832;13.816;2024-01-15T11:35:49;11.40;;;1.70;;
17253;SDS011;32542;52.832;13.816;2024-01-15T11:38:52;10.98;;;1.77;;
17253;SDS011;32542;52.832;13.816;2024-01-15T11:41:55;9.88;;;1.85;;
17253;SDS011;32542;52.832;13.816;2024-01-15T11:44:59;12.45;;;1.65;;
17253;SDS011;32542;52.832;13.816;2024-01-15T11:48:12;6.28;;;1.52;;
17253;SDS011;32542;52.832;13.816;2024-01-15T11:51:18;14.32;;;2.03;;
17253;SDS011;32542;52.832;13.816;2024-01-15T11:54:21;9.68;;;1.75;;
17253;SDS011;32542;52.832;13.816;2024-01-15T11:57:28;12.68;;;1.88;;
17253;SDS011;32542;52.832;13.816;2024-01-15T12:00:39;7.70;;;1.70;;
17253;SDS011;32542;52.832;13.816;2024-01-15T12:03:44;6.00;;;1.67;;
17253;SDS011;32542;52.832;13.816;2024-01-15T12:06:50;6.72;;;1.55;;
17253;SDS011;32542;52.832;13.816;2024-01-15T12:09:53;4.57;;;1.60;;
17253;SDS011;32542;52.832;13.816;2024-01-15T12:12:57;4.45;;;1.60;;
17253;SDS011;32542;52.832;13.816;2024-01-15T12:16:01;6.93;;;1.90;;
17253;SDS011;32542;52.832;13.816;2024-01-15T12:19:05;5.25;;;1.35;;
17253;SDS011;32542;52.832;13.816;2024-01-15T12:22:10;10.45;;;1.20;;
17253;SDS011;32542;52.832;13.816;2024-01-15T12:25:13;5.53;;;1.45;;
17253;SDS011;32542;52.832;13.816;2024-01-15T12:28:15;9.00;;;1.45;;
17253;SDS011;32542;52.832;13.816;2024-01-15T12:31:18;4.60;;;1.55;;
17253;SDS011;32542;52.832;13.816;2024-01-15T12:34:21;6.22;;;1.15;;
17253;SDS011;32542;52.832;13.816;2024-01-15T12:37:26;6.68;;;1.60;;
17253;SDS011;32542;52.832;13.816;2024-01-15T12:40:30;4.45;;;1.40;;
17253;SDS011;32542;52.832;13.816;2024-01-15T12:43:34;5.35;;;1.45;;
17253;SDS011;32542;52.832;13.816;2024-01-15T12:46:37;6.57;;;1.40;;
17253;SDS011;32542;52.832;13.816;2024-01-15T12:49:40;4.60;;;1.23;;
17253;SDS011;32542;52.832;13.816;2024-01-15T12:52:45;5.53;;;1.30;;
17253;SDS011;32542;52.832;13.816;2024-01-15T12:55:48;2.35;;;1.10;;
17253;SDS011;32542;52.832;13.816;2024-01-15T12:58:51;5.28;;;1.27;;
17253;SDS011;32542;52.832;13.816;2024-01-15T13:01:53;4.50;;;1.40;;
17253;SDS011;32542;52.832;13.816;2024-01-15T13:04:58;7.55;;;1.63;;
17253;SDS011;32542;52.832;13.816;2024-01-15T13:08:03;4.88;;;1.20;;
17253;SDS011;32542;52.832;13.816;2024-01-15T13:11:06;3.17;;;1.08;;
17253;SDS011;32542;52.832;13.816;2024-01-15T13:14:09;6.18;;;1.17;;
17253;SDS011;32542;52.832;13.816;2024-01-15T13:17:11;7.22;;;1.52;;
17253;SDS011;32542;52.832;13.816;2024-01-15T13:20:15;3.75;;;1.13;;
17253;SDS011;32542;52.832;13.816;2024-01-15T13:23:20;7.50;;;1.38;;
17253;SDS011;32542;52.832;13.816;2024-01-15T13:26:23;2.92;;;0.98;;
17253;SDS011;32542;52.832;13.816;2024-01-15T13:29:26;5.70;;;1.02;;
17253;SDS011;32542;52.832;13.816;2024-01-15T13:32:29;4.78;;;0.88;;
17253;SDS011;32542;52.832;13.816;2024-01-15T13:35:32;6.30;;;1.10;;
17253;SDS011;32542;52.832;13.816;2024-01-15T13:38:36;6.60;;;1.30;;
17253;SDS011;32542;52.832;13.816;2024-01-15T13:41:39;7.30;;;1.58;;
17253;SDS011;32542;52.832;13.816;2024-01-15T13:44:42;3.72;;;0.93;;
17253;SDS011;32542;52.832;13.816;2024-01-15T13:47:45;4.28;;;1.13;;
17253;SDS011;32542;52.832;13.816;2024-01-15T13:50:48;10.23;;;1.40;;
17253;SDS011;32542;52.832;13.816;2024-01-15T13:53:53;5.90;;;1.40;;
17253;SDS011;32542;52.832;13.816;2024-01-15T13:56:56;3.25;;;0.90;;
17253;SDS011;32542;52.832;13.816;2024-01-15T14:00:00;8.20;;;1.38;;
17253;SDS011;32542;52.832;13.816;2024-01-15T14:03:05;7.43;;;1.30;;
17253;SDS011;32542;52.832;13.816;2024-01-15T14:06:08;6.25;;;1.20;;
17253;SDS011;32542;52.832;13.816;2024-01-15T14:09:13;5.47;;;1.10;;
17253;SDS011;32542;52.832;13.816;2024-01-15T14:12:16;6.20;;;1.00;;
17253;SDS011;32542;52.832;13.816;2024-01-15T14:15:19;5.07;;;1.05;;
17253;SDS011;32542;52.832;13.816;2024-01-15T14:18:23;6.57;;;1.20;;
17253;SDS011;32542;52.832;13.816;2024-01-15T14:21:26;2.92;;;1.10;;
17253;SDS011;32542;52.832;13.816;2024-01-15T14:24:30;9.13;;;1.10;;
17253;SDS011;32542;52.832;13.816;2024-01-15T14:27:33;4.82;;;1.05;;
17253;SDS011;32542;52.832;13.816;2024-01-15T14:30:36;8.52;;;1.25;;
17253;SDS011;32542;52.832;13.816;2024-01-15T14:33:39;3.80;;;1.15;;
17253;SDS011;32542;52.832;13.816;2024-01-15T14:36:42;6.75;;;1.40;;
17253;SDS011;32542;52.832;13.816;2024-01-15T14:39:46;7.57;;;1.00;;
17253;SDS011;32542;52.832;13.816;2024-01-15T14:42:49;5.40;;;1.42;;
17253;SDS011;32542;52.832;13.816;2024-01-15T14:45:52;7.85;;;1.10;;
17253;SDS011;32542;52.832;13.816;2024-01-15T14:48:55;4.28;;;1.13;;
17253;SDS011;32542;52.832;13.816;2024-01-15T14:51:58;6.00;;;1.42;;
17253;SDS011;32542;52.832;13.816;2024-01-15T14:55:03;6.10;;;1.17;;
17253;SDS011;32542;52.832;13.816;2024-01-15T14:58:06;5.50;;;1.15;;
17253;SDS011;32542;52.832;13.816;2024-01-15T15:01:09;4.78;;;1.30;;
17253;SDS011;32542;52.832;13.816;2024-01-15T15:04:12;3.17;;;1.00;;
17253;SDS011;32542;52.832;13.816;2024-01-15T15:07:16;3.85;;;1.17;;
17253;SDS011;32542;52.832;13.816;2024-01-15T15:10:20;3.50;;;1.25;;
17253;SDS011;32542;52.832;13.816;2024-01-15T15:13:23;3.35;;;0.98;;
17253;SDS011;32542;52.832;13.816;2024-01-15T15:16:44;5.20;;;1.17;;
17253;SDS011;32542;52.832;13.816;2024-01-15T15:19:47;4.50;;;1.25;;
17253;SDS011;32542;52.832;13.816;2024-01-15T15:22:51;4.50;;;1.20;;
17253;SDS011;32542;52.832;13.816;2024-01-15T15:25:58;5.78;;;1.35;;
17253;SDS011;32542;52.832;13.816;2024-01-15T15:29:01;4.28;;;1.27;;
17253;SDS011;32542;52.832;13.816;2024-01-15T15:32:04;2.08;;;0.60;;
17253;SDS011;32542;52.832;13.816;2024-01-15T15:35:07;4.95;;;1.00;;
17253;SDS011;32542;52.832;13.816;2024-01-15T15:38:11;4.13;;;0.90;;
17253;SDS011;32542;52.832;13.816;2024-01-15T15:41:15;5.35;;;1.23;;
17253;SDS011;32542;52.832;13.816;2024-01-15T15:44:18;4.90;;;1.00;;
17253;SDS011;32542;52.832;13.816;2024-01-15T15:47:20;4.38;;;1.00;;
17253;SDS011;32542;52.832;13.816;2024-01-15T15:50:23;4.72;;;0.80;;
17253;SDS011;32542;52.832;13.816;2024-01-15T15:53:26;7.15;;;1.00;;
17253;SDS011;32542;52.832;13.816;2024-01-15T15:56:30;3.58;;;1.13;;
17253;SDS011;32542;52.832;13.816;2024-01-15T15:59:35;1.98;;;1.00;;
17253;SDS011;32542;52.832;13.816;2024-01-15T16:02:38;3.53;;;1.27;;
17253;SDS011;32542;52.832;13.816;2024-01-15T16:05:41;5.57;;;0.77;;
17253;SDS011;32542;52.832;13.816;2024-01-15T16:08:53;5.03;;;0.98;;
17253;SDS011;32542;52.832;13.816;2024-01-15T16:11:58;4.18;;;1.30;;
17253;SDS011;32542;52.832;13.816;2024-01-15T16:15:00;2.88;;;0.93;;
17253;SDS011;32542;52.832;13.816;2024-01-15T16:18:04;4.30;;;1.00;;
17253;SDS011;32542;52.832;13.816;2024-01-15T16:21:27;3.17;;;1.00;;
17253;SDS011;32542;52.832;13.816;2024-01-15T16:24:50;5.75;;;1.52;;
17253;SDS011;32542;52.832;13.816;2024-01-15T16:27:58;2.28;;;0.90;;
17253;SDS011;32542;52.832;13.816;2024-01-15T16:31:01;2.15;;;1.10;;
17253;SDS011;32542;52.832;13.816;2024-01-15T16:34:09;2.00;;;0.80;;
17253;SDS011;32542;52.832;13.816;2024-01-15T16:37:13;5.78;;;1.42;;
17253;SDS011;32542;52.832;13.816;2024-01-15T16:40:16;10.20;;;1.00;;
17253;SDS011;32542;52.832;13.816;2024-01-15T16:43:21;6.53;;;1.02;;
17253;SDS011;32542;52.832;13.816;2024-01-15T16:46:24;3.83;;;0.95;;
17253;SDS011;32542;52.832;13.816;2024-01-15T16:49:27;7.30;;;1.13;;
17253;SDS011;32542;52.832;13.816;2024-01-15T16:52:30;2.10;;;1.08;;
17253;SDS011;32542;52.832;13.816;2024-01-15T16:55:33;1.48;;;1.02;;
17253;SDS011;32542;52.832;13.816;2024-01-15T16:58:37;3.33;;;1.20;;
17253;SDS011;32542;52.832;13.816;2024-01-15T17:01:40;2.30;;;1.00;;
17253;SDS011;32542;52.832;13.816;2024-01-15T17:04:43;3.03;;;0.88;;
17253;SDS011;32542;52.832;13.816;2024-01-15T17:07:45;4.25;;;1.13;;
17253;SDS011;32542;52.832;13.816;2024-01-15T17:10:48;4.40;;;1.17;;
17253;SDS011;32542;52.832;13.816;2024-01-15T17:13:52;4.00;;;0.90;;
17253;SDS011;32542;52.832;13.816;2024-01-15T17:16:55;3.25;;;1.00;;
17253;SDS011;32542;52.832;13.816;2024-01-15T17:19:59;4.18;;;0.88;;
17253;SDS011;32542;52.832;13.816;2024-01-15T17:23:02;1.65;;;0.80;;
17253;SDS011;32542;52.832;13.816;2024-01-15T17:26:05;3.05;;;0.90;;
17253;SDS011;32542;52.832;13.816;2024-01-15T17:29:09;3.17;;;1.10;;
17253;SDS011;32542;52.832;13.816;2024-01-15T17:32:12;4.43;;;1.10;;
17253;SDS011;32542;52.832;13.816;2024-01-15T17:35:15;4.72;;;1.00;;
17253;SDS011;32542;52.832;13.816;2024-01-15T17:38:18;2.22;;;0.90;;
17253;SDS011;32542;52.832;13.816;2024-01-15T17:41:21;2.67;;;0.98;;
17253;SDS011;32542;52.832;13.816;2024-01-15T17:44:25;3.15;;;0.95;;
17253;SDS011;32542;52.832;13.816;2024-01-15T17:47:28;2.90;;;0.77;;
17253;SDS011;32542;52.832;13.816;2024-01-15T17:50:31;2.20;;;1.05;;
17253;SDS011;32542;52.832;13.816;2024-01-15T17:53:34;1.48;;;0.93;;
17253;SDS011;32542;52.832;13.816;2024-01-15T17:56:37;3.83;;;1.10;;
17253;SDS011;32542;52.832;13.816;2024-01-15T17:59:42;2.65;;;0.90;;
17253;SDS011;32542;52.832;13.816;2024-01-15T18:02:46;2.80;;;1.23;;
17253;SDS011;32542;52.832;13.816;2024-01-15T18:05:49;2.60;;;0.80;;
17253;SDS011;32542;52.832;13.816;2024-01-15T18:08:52;1.60;;;0.88;;